Time;durP1;ratioP1;P1;durP2;ratioP2;P2;SDS_P1;SDS_P2;PMS_P1;PMS_P2;Temp;Humidity;BMP_temperature;BMP_pressure;BME280_temperature;BME280_humidity;BME280_pressure;Samples;Min_cycle;Max_cycle;Signal;HPM_P1;HPM_P2
2021/06/20 00:00:45;;;;;;;57.05;29.55;;;16.80;94.80;;;;;;5011838;28;20169;-52
2021/06/20 00:03:10;;;;;;;48.00;28.25;;;16.70;95.00;;;;;;5012727;28;20421;-50
2021/06/20 00:05:53;;;;;;;51.55;28.40;;;16.70;95.40;;;;;;4994737;28;20049;-49
2021/06/20 00:08:19;;;;;;;53.15;28.92;;;16.80;95.40;;;;;;5012709;28;20052;-52
2021/06/20 00:10:48;;;;;;;45.75;27.27;;;16.80;95.40;;;;;;5012548;28;20045;-51
2021/06/20 00:13:16;;;;;;;45.50;26.63;;;16.80;95.30;;;;;;4978968;28;20076;-50
2021/06/20 00:15:43;;;;;;;49.75;27.92;;;16.80;95.30;;;;;;4994630;28;20132;-50
2021/06/20 00:18:09;;;;;;;50.72;28.95;;;16.90;95.20;;;;;;5013468;28;20120;-51
2021/06/20 00:20:46;;;;;;;52.58;29.23;;;16.90;95.10;;;;;;4995938;28;20042;-50
2021/06/20 00:23:12;;;;;;;44.42;24.98;;;17.00;94.70;;;;;;4996978;28;20045;-48
2021/06/20 00:25:41;;;;;;;49.50;28.02;;;16.90;95.20;;;;;;5015298;28;20034;-50
2021/06/20 00:28:07;;;;;;;49.63;28.75;;;17.00;95.00;;;;;;5018088;28;20053;-50
2021/06/20 00:30:36;;;;;;;59.30;30.75;;;17.00;94.70;;;;;;4997862;28;20042;-51
2021/06/20 00:33:03;;;;;;;55.95;30.50;;;16.90;94.90;;;;;;4997676;28;20483;-48
2021/06/20 00:35:29;;;;;;;54.70;29.95;;;17.00;95.00;;;;;;5014420;28;20083;-48
2021/06/20 00:37:56;;;;;;;61.00;31.40;;;16.90;95.10;;;;;;5014772;28;20037;-51
2021/06/20 00:40:24;;;;;;;56.08;30.58;;;16.80;95.30;;;;;;4992787;28;20060;-48
2021/06/20 00:42:51;;;;;;;61.72;31.20;;;16.70;95.80;;;;;;5015716;28;20406;-52
2021/06/20 00:45:19;;;;;;;63.10;31.35;;;16.70;96.00;;;;;;4976194;28;20050;-48
2021/06/20 00:47:45;;;;;;;59.05;32.63;;;16.70;95.90;;;;;;4999289;28;20488;-51
2021/06/20 00:50:13;;;;;;;64.32;33.90;;;16.70;95.50;;;;;;5019887;28;20038;-50
2021/06/20 00:52:41;;;;;;;66.45;34.03;;;16.60;95.80;;;;;;5027455;28;20494;-49
2021/06/20 00:55:08;;;;;;;50.25;30.25;;;16.60;95.90;;;;;;5009735;28;20148;-48
2021/06/20 00:57:35;;;;;;;53.67;30.92;;;16.70;96.20;;;;;;5024919;28;20482;-50
2021/06/20 01:00:06;;;;;;;57.70;32.47;;;16.90;95.20;;;;;;5011473;28;20049;-48
2021/06/20 01:02:33;;;;;;;59.90;31.73;;;16.90;95.30;;;;;;4987816;28;20042;-49
2021/06/20 01:05:01;;;;;;;61.17;32.30;;;17.00;95.50;;;;;;4995954;28;20058;-51
2021/06/20 01:07:27;;;;;;;56.53;31.70;;;16.90;95.80;;;;;;4984627;28;20126;-47
2021/06/20 01:09:53;;;;;;;53.65;31.63;;;16.90;95.90;;;;;;4995486;28;20580;-50
2021/06/20 01:12:21;;;;;;;54.78;31.02;;;16.90;95.80;;;;;;4960120;28;20403;-48
2021/06/20 01:14:49;;;;;;;54.60;30.95;;;16.90;95.70;;;;;;4961126;28;20054;-49
2021/06/20 01:17:19;;;;;;;62.17;31.83;;;17.00;95.70;;;;;;4995104;28;20050;-49
2021/06/20 01:19:46;;;;;;;61.22;32.55;;;17.00;95.90;;;;;;4994800;28;20046;-51
2021/06/20 01:22:31;;;;;;;65.13;33.20;;;17.00;95.90;;;;;;4994525;28;20093;-48
2021/06/20 01:25:12;;;;;;;61.50;33.05;;;17.00;95.80;;;;;;5001364;28;20042;-50
2021/06/20 01:27:41;;;;;;;60.35;33.70;;;17.00;95.80;;;;;;4981958;28;20049;-50
2021/06/20 01:30:11;;;;;;;63.72;33.00;;;16.90;96.20;;;;;;4969295;28;20068;-49
2021/06/20 01:32:37;;;;;;;65.68;33.13;;;17.00;96.00;;;;;;4984818;28;20077;-48
2021/06/20 01:35:03;;;;;;;62.65;33.72;;;17.00;96.00;;;;;;4993452;28;20081;-50
2021/06/20 01:37:29;;;;;;;70.47;36.30;;;17.00;96.10;;;;;;4984553;28;20046;-51
2021/06/20 01:39:57;;;;;;;68.53;36.25;;;17.00;96.30;;;;;;5005616;28;20053;-48
2021/06/20 01:42:23;;;;;;;67.05;36.10;;;17.00;96.20;;;;;;5004576;28;20073;-50
2021/06/20 01:44:51;;;;;;;65.10;34.70;;;17.00;96.40;;;;;;5001073;28;20061;-49
2021/06/20 01:47:17;;;;;;;66.75;37.72;;;17.00;96.30;;;;;;5006070;28;20525;-50
2021/06/20 01:49:44;;;;;;;69.50;37.72;;;17.10;96.10;;;;;;5005361;28;20073;-53
2021/06/20 01:52:11;;;;;;;70.40;37.00;;;17.10;96.40;;;;;;4981212;28;20052;-51
2021/06/20 01:54:51;;;;;;;71.38;36.63;;;17.10;96.50;;;;;;4992365;28;20045;-51
2021/06/20 01:57:24;;;;;;;68.63;38.03;;;17.10;96.50;;;;;;4978148;28;20066;-49
2021/06/20 01:59:53;;;;;;;;;;;17.20;96.00;;;;;;4993434;28;20121;-49
2021/06/20 02:02:20;;;;;;;71.13;38.67;;;17.20;96.10;;;;;;4964723;28;19918;-49
2021/06/20 02:04:47;;;;;;;78.85;41.40;;;17.10;96.40;;;;;;4980701;28;20043;-49
2021/06/20 02:07:13;;;;;;;75.22;41.33;;;17.10;96.60;;;;;;5019013;28;20046;-48
2021/06/20 02:09:40;;;;;;;76.78;42.38;;;17.10;96.80;;;;;;5019388;28;20044;-49
2021/06/20 02:12:08;;;;;;;75.13;41.17;;;17.10;96.80;;;;;;5021814;28;20038;-49
2021/06/20 02:14:35;;;;;;;69.50;40.28;;;17.20;96.90;;;;;;4999668;28;20046;-48
2021/06/20 02:17:13;;;;;;;68.22;40.03;;;17.20;96.50;;;;;;4991729;28;20413;-48
2021/06/20 02:19:38;;;;;;;74.13;40.67;;;17.30;96.70;;;;;;5005881;28;20038;-52
2021/06/20 02:22:04;;;;;;;68.95;39.92;;;17.40;96.40;;;;;;5017481;28;20100;-50
2021/06/20 02:24:30;;;;;;;71.53;41.50;;;17.50;96.10;;;;;;5018190;28;20100;-48
2021/06/20 02:26:56;;;;;;;75.53;41.72;;;17.40;96.40;;;;;;5001846;28;20045;-50
2021/06/20 02:29:22;;;;;;;66.93;36.63;;;17.30;96.70;;;;;;5021597;28;20061;-50
2021/06/20 02:31:49;;;;;;;78.07;42.75;;;17.40;96.80;;;;;;5017762;28;20046;-50
2021/06/20 02:34:15;;;;;;;71.57;41.85;;;17.30;96.70;;;;;;5000882;28;20080;-50
2021/06/20 02:36:41;;;;;;;74.30;42.58;;;17.40;96.50;;;;;;5022517;28;20091;-49
2021/06/20 02:39:07;;;;;;;81.30;43.70;;;17.30;96.80;;;;;;4999943;28;20141;-51
2021/06/20 02:41:33;;;;;;;73.45;42.67;;;17.30;96.90;;;;;;5000421;28;20049;-49
2021/06/20 02:43:59;;;;;;;73.82;42.55;;;17.30;97.00;;;;;;5018591;28;20137;-49
2021/06/20 02:46:25;;;;;;;71.60;43.25;;;17.30;97.20;;;;;;5016183;28;20116;-49
2021/06/20 02:48:52;;;;;;;75.65;42.50;;;17.40;96.80;;;;;;4998916;28;20077;-50
2021/06/20 02:51:17;;;;;;;73.00;41.80;;;17.40;97.10;;;;;;5015602;28;20061;-48
2021/06/20 02:53:43;;;;;;;69.57;42.50;;;17.30;96.90;;;;;;4983673;28;20049;-53
2021/06/20 02:56:09;;;;;;;74.00;41.38;;;17.30;97.00;;;;;;4994350;28;20482;-48
2021/06/20 02:58:35;;;;;;;71.38;42.72;;;17.40;97.00;;;;;;5009420;28;20064;-48
2021/06/20 03:01:02;;;;;;;73.47;42.83;;;17.40;97.00;;;;;;4999776;28;20041;-48
2021/06/20 03:03:29;;;;;;;63.53;40.15;;;17.30;97.00;;;;;;4999608;28;20041;-48
2021/06/20 03:05:55;;;;;;;85.25;44.78;;;17.40;97.00;;;;;;5013737;28;20042;-49
2021/06/20 03:08:21;;;;;;;66.70;41.63;;;17.30;97.10;;;;;;4999330;28;20042;-51
2021/06/20 03:10:46;;;;;;;78.20;43.35;;;17.40;97.20;;;;;;5014901;28;20125;-54
2021/06/20 03:13:12;;;;;;;77.25;42.38;;;17.40;97.10;;;;;;4996479;28;20422;-48
2021/06/20 03:15:39;;;;;;;89.85;44.63;;;17.30;97.10;;;;;;5012442;28;20050;-48
2021/06/20 03:18:05;;;;;;;73.65;40.88;;;17.30;97.30;;;;;;5014258;28;20438;-48
2021/06/20 03:20:32;;;;;;;78.88;42.92;;;17.40;97.20;;;;;;5016115;28;20045;-51
2021/06/20 03:23:01;;;;;;;76.03;42.63;;;17.30;97.10;;;;;;4999315;28;20033;-49
2021/06/20 03:25:27;;;;;;;72.65;42.60;;;17.40;97.30;;;;;;4995203;28;20054;-48
2021/06/20 03:27:52;;;;;;;79.78;42.80;;;17.30;97.10;;;;;;4997116;28;20038;-50
2021/06/20 03:30:19;;;;;;;86.18;44.42;;;17.30;97.10;;;;;;5017141;28;20053;-48
2021/06/20 03:32:45;;;;;;;85.70;44.72;;;17.30;97.10;;;;;;5015822;28;20045;-49
2021/06/20 03:35:12;;;;;;;79.10;43.38;;;17.30;97.20;;;;;;4998245;28;20045;-48
2021/06/20 03:37:38;;;;;;;66.57;40.90;;;17.30;97.20;;;;;;5004295;28;20425;-50
2021/06/20 03:40:04;;;;;;;72.00;40.80;;;17.30;97.20;;;;;;5014186;28;20050;-48
2021/06/20 03:42:30;;;;;;;71.63;40.97;;;17.30;97.20;;;;;;5014833;28;20070;-49
2021/06/20 03:44:56;;;;;;;72.72;40.75;;;17.30;97.20;;;;;;5023508;28;20050;-48
2021/06/20 03:47:23;;;;;;;77.55;43.25;;;17.40;97.30;;;;;;5021413;28;20536;-49
2021/06/20 03:49:49;;;;;;;83.07;44.33;;;17.40;97.50;;;;;;4990718;28;20047;-49
2021/06/20 03:52:14;;;;;;;92.05;45.30;;;17.40;97.50;;;;;;5023596;28;20111;-50
2021/06/20 03:54:42;;;;;;;65.85;40.80;;;17.50;97.50;;;;;;5006078;28;20034;-50
2021/06/20 03:57:08;;;;;;;84.07;44.53;;;17.50;97.40;;;;;;5008817;28;20042;-50
2021/06/20 03:59:34;;;;;;;80.53;44.78;;;17.50;97.50;;;;;;5029707;28;20120;-50
2021/06/20 04:02:00;;;;;;;76.75;42.60;;;17.50;97.50;;;;;;4998299;28;20061;-53
2021/06/20 04:04:27;;;;;;;81.45;43.22;;;17.50;97.40;;;;;;5007791;28;20046;-52
2021/06/20 04:06:52;;;;;;;90.78;45.30;;;17.50;97.60;;;;;;4999306;28;20038;-49
2021/06/20 04:09:20;;;;;;;81.80;42.72;;;17.50;97.50;;;;;;5015536;28;20073;-52
2021/06/20 04:11:47;;;;;;;86.85;45.00;;;17.50;97.40;;;;;;5013555;28;20057;-49
2021/06/20 04:14:13;;;;;;;79.72;43.65;;;17.50;97.40;;;;;;5014208;28;20038;-50
2021/06/20 04:16:38;;;;;;;100.38;46.80;;;17.60;97.60;;;;;;5015166;28;20042;-50
2021/06/20 04:19:05;;;;;;;79.57;43.90;;;17.60;97.50;;;;;;5015600;28;20276;-50
2021/06/20 04:21:31;;;;;;;82.22;43.55;;;17.60;97.50;;;;;;4998508;28;20057;-53
2021/06/20 04:23:57;;;;;;;79.13;43.72;;;17.60;97.50;;;;;;4998456;28;20050;-50
2021/06/20 04:26:23;;;;;;;72.88;42.30;;;17.70;97.60;;;;;;4980744;28;20046;-50
2021/06/20 04:28:48;;;;;;;76.10;43.67;;;17.70;97.80;;;;;;4978726;28;20160;-49
2021/06/20 04:31:14;;;;;;;81.15;43.42;;;17.80;97.70;;;;;;5015601;28;20042;-49
2021/06/20 04:33:41;;;;;;;85.28;45.92;;;17.90;97.70;;;;;;5000117;28;20461;-49
2021/06/20 04:36:08;;;;;;;81.53;44.55;;;17.80;97.70;;;;;;4991520;28;20101;-48
2021/06/20 04:38:34;;;;;;;81.13;45.03;;;17.90;97.80;;;;;;4995798;28;20053;-52
2021/06/20 04:41:06;;;;;;;75.97;43.13;;;17.90;97.70;;;;;;5009707;28;20508;-49
2021/06/20 04:46:28;;;;;;;81.20;43.63;;;18.00;97.90;;;;;;5014485;28;20109;-50
2021/06/20 04:49:01;;;;;;;80.50;43.40;;;18.10;97.90;;;;;;5020483;28;20292;-52
2021/06/20 04:51:31;;;;;;;73.15;41.35;;;18.10;97.90;;;;;;5028114;28;20426;-51
2021/06/20 04:53:57;;;;;;;75.85;41.95;;;18.20;98.10;;;;;;5012464;28;20038;-49
2021/06/20 04:56:24;;;;;;;65.57;39.35;;;18.20;98.00;;;;;;5012336;28;20136;-49
2021/06/20 04:58:49;;;;;;;65.57;38.47;;;18.20;98.10;;;;;;5013542;28;20049;-52
2021/06/20 05:01:15;;;;;;;64.80;38.70;;;18.30;98.20;;;;;;5014259;28;20050;-51
2021/06/20 05:03:41;;;;;;;61.70;38.00;;;18.40;98.40;;;;;;5013205;28;20038;-48
2021/06/20 05:06:07;;;;;;;61.35;39.05;;;18.40;98.30;;;;;;5012332;28;20045;-51
2021/06/20 05:08:33;;;;;;;61.53;39.15;;;18.60;98.30;;;;;;5003997;28;20061;-49
2021/06/20 05:10:59;;;;;;;58.50;39.05;;;18.60;98.20;;;;;;5012275;28;20819;-50
2021/06/20 05:13:25;;;;;;;58.05;39.15;;;18.70;98.10;;;;;;4993283;28;20057;-52
2021/06/20 05:15:51;;;;;;;58.08;38.13;;;18.70;98.00;;;;;;5009394;28;20076;-51
2021/06/20 05:18:16;;;;;;;56.78;38.15;;;18.70;98.00;;;;;;5014261;28;20034;-52
2021/06/20 05:20:43;;;;;;;62.97;38.92;;;18.80;97.90;;;;;;5012200;28;20044;-51
2021/06/20 05:23:09;;;;;;;55.60;37.53;;;18.80;97.80;;;;;;5020401;28;20128;-52
2021/06/20 05:25:36;;;;;;;54.15;36.53;;;18.80;97.70;;;;;;4985059;28;20049;-52
2021/06/20 05:28:03;;;;;;;47.28;34.70;;;18.90;97.60;;;;;;4996883;28;20050;-51
2021/06/20 05:30:29;;;;;;;44.95;32.85;;;18.90;97.50;;;;;;5023786;28;20417;-51
2021/06/20 05:32:55;;;;;;;43.80;32.22;;;18.90;97.30;;;;;;4996644;28;20112;-48
2021/06/20 05:35:21;;;;;;;42.08;30.83;;;18.80;97.10;;;;;;5016960;28;20482;-52
2021/06/20 05:37:47;;;;;;;42.10;30.83;;;18.90;96.50;;;;;;5012860;28;20038;-52
2021/06/20 05:40:14;;;;;;;41.17;29.60;;;18.80;96.50;;;;;;5005799;28;20089;-53
2021/06/20 05:42:40;;;;;;;38.10;29.13;;;18.80;96.50;;;;;;5019688;28;20036;-53
2021/06/20 05:45:06;;;;;;;41.97;28.55;;;18.70;96.40;;;;;;5020707;28;20047;-53
2021/06/20 05:47:33;;;;;;;36.38;26.33;;;18.70;96.40;;;;;;5011773;28;20104;-50
2021/06/20 05:49:59;;;;;;;39.72;27.20;;;18.70;96.10;;;;;;5025993;28;20038;-53
2021/06/20 05:52:24;;;;;;;35.97;26.25;;;18.60;96.30;;;;;;5022353;28;20482;-52
2021/06/20 05:54:50;;;;;;;40.80;26.48;;;18.60;96.00;;;;;;5017918;28;20069;-52
2021/06/20 05:57:21;;;;;;;34.22;24.92;;;18.60;96.00;;;;;;4996693;28;20065;-53
2021/06/20 05:59:47;;;;;;;28.90;23.13;;;18.60;95.50;;;;;;4994003;28;20145;-48
2021/06/20 06:02:14;;;;;;;33.60;23.67;;;18.60;95.80;;;;;;5013175;28;20069;-52
2021/06/20 06:04:41;;;;;;;33.60;23.25;;;18.50;96.00;;;;;;5001755;28;20064;-49
2021/06/20 06:07:08;;;;;;;32.33;22.92;;;18.40;95.90;;;;;;5018654;28;20057;-51
2021/06/20 06:09:35;;;;;;;30.60;22.63;;;18.40;95.90;;;;;;4997137;28;20094;-49
2021/06/20 06:12:02;;;;;;;33.28;23.95;;;18.40;96.10;;;;;;5015435;28;20046;-49
2021/06/20 06:14:29;;;;;;;33.35;23.30;;;18.40;96.10;;;;;;4996242;28;20050;-49
2021/06/20 06:16:54;;;;;;;33.95;23.20;;;18.40;96.10;;;;;;5012195;28;20474;-48
2021/06/20 06:19:20;;;;;;;27.55;19.45;;;18.40;96.20;;;;;;5012783;28;20092;-52
2021/06/20 06:21:46;;;;;;;23.73;18.83;;;18.40;96.10;;;;;;4995527;28;20581;-52
2021/06/20 06:24:12;;;;;;;27.83;17.23;;;18.40;95.90;;;;;;4994250;28;20046;-55
2021/06/20 06:26:38;;;;;;;23.70;17.92;;;18.40;95.70;;;;;;5023722;28;20056;-52
2021/06/20 06:29:04;;;;;;;22.42;17.23;;;18.40;95.50;;;;;;5014518;28;20042;-51
2021/06/20 06:31:31;;;;;;;24.00;17.35;;;18.40;95.50;;;;;;5015169;28;20041;-50
2021/06/20 06:33:57;;;;;;;18.45;14.32;;;18.40;95.60;;;;;;5015349;28;20476;-51
2021/06/20 06:36:23;;;;;;;20.55;14.88;;;18.40;95.60;;;;;;5015332;28;20065;-52
2021/06/20 06:38:49;;;;;;;20.35;14.95;;;18.40;95.60;;;;;;5015467;28;20053;-52
2021/06/20 06:41:18;;;;;;;20.65;15.02;;;18.50;95.50;;;;;;5005762;28;20072;-51
2021/06/20 06:43:47;;;;;;;18.63;14.50;;;18.50;95.60;;;;;;5015666;28;20069;-51
2021/06/20 06:46:13;;;;;;;19.27;14.43;;;18.50;95.40;;;;;;5016491;28;20076;-54
2021/06/20 06:48:40;;;;;;;22.33;15.55;;;18.50;95.50;;;;;;4996519;28;20068;-53
2021/06/20 06:51:06;;;;;;;23.10;16.65;;;18.50;95.60;;;;;;5016531;28;20041;-52
2021/06/20 06:53:33;;;;;;;21.48;16.00;;;18.50;95.50;;;;;;4988011;28;20049;-52
2021/06/20 06:55:59;;;;;;;21.17;16.27;;;18.50;95.50;;;;;;5001505;28;20056;-52
2021/06/20 06:58:25;;;;;;;19.33;14.20;;;18.50;95.50;;;;;;4996664;28;20539;-51
2021/06/20 07:00:51;;;;;;;18.67;14.30;;;18.50;95.60;;;;;;5018848;28;20038;-53
2021/06/20 07:03:17;;;;;;;18.02;12.65;;;18.50;95.50;;;;;;5014839;28;20498;-51
2021/06/20 07:05:43;;;;;;;19.45;11.43;;;18.60;95.10;;;;;;4988649;28;20103;-51
2021/06/20 07:08:10;;;;;;;17.30;11.02;;;18.60;95.00;;;;;;5023336;28;20048;-53
2021/06/20 07:10:36;;;;;;;15.18;11.45;;;18.60;94.50;;;;;;5013091;28;20100;-53
2021/06/20 07:13:03;;;;;;;15.65;11.43;;;18.60;94.50;;;;;;4997508;28;20049;-53
2021/06/20 07:15:30;;;;;;;16.75;11.60;;;18.60;94.70;;;;;;4999842;28;20095;-50
2021/06/20 07:17:56;;;;;;;13.85;11.07;;;18.60;94.90;;;;;;4995449;28;20057;-52
2021/06/20 07:20:24;;;;;;;16.00;11.15;;;18.60;94.80;;;;;;5021870;28;20050;-48
2021/06/20 07:22:51;;;;;;;14.68;11.00;;;18.60;94.70;;;;;;4980733;28;20093;-48
2021/06/20 07:25:20;;;;;;;14.32;9.60;;;18.70;94.40;;;;;;4996964;28;20037;-52
2021/06/20 07:27:46;;;;;;;14.63;9.68;;;18.70;94.40;;;;;;5014747;28;20049;-48
2021/06/20 07:30:15;;;;;;;15.85;9.43;;;18.70;94.40;;;;;;5023266;28;20046;-52
2021/06/20 07:32:43;;;;;;;12.07;8.93;;;18.70;94.50;;;;;;5000382;28;20129;-51
2021/06/20 07:35:10;;;;;;;11.90;8.43;;;18.80;94.50;;;;;;5013285;28;20120;-50
2021/06/20 07:37:36;;;;;;;11.25;8.20;;;18.80;94.20;;;;;;4996006;28;20065;-49
2021/06/20 07:40:05;;;;;;;9.60;7.28;;;18.80;93.90;;;;;;5013824;28;20048;-50
2021/06/20 07:42:30;;;;;;;10.75;7.57;;;18.90;93.90;;;;;;5013778;28;20100;-50
2021/06/20 07:44:56;;;;;;;9.57;7.38;;;18.80;93.60;;;;;;5013692;28;20486;-46
2021/06/20 07:47:22;;;;;;;10.88;7.10;;;18.80;93.70;;;;;;5007330;28;20063;-47
2021/06/20 07:49:49;;;;;;;9.40;6.95;;;18.80;93.70;;;;;;4999358;28;20041;-49
2021/06/20 07:52:14;;;;;;;12.25;7.55;;;18.80;93.40;;;;;;4996114;28;20033;-51
2021/06/20 07:54:49;;;;;;;8.40;6.88;;;18.80;93.40;;;;;;5012652;28;20053;-51
2021/06/20 07:57:15;;;;;;;9.40;6.70;;;18.70;93.60;;;;;;5022358;28;20552;-50
2021/06/20 07:59:43;;;;;;;9.45;6.85;;;18.80;93.20;;;;;;5021868;28;20395;-49
2021/06/20 08:02:11;;;;;;;11.63;6.63;;;18.70;93.30;;;;;;5013322;28;20038;-47
2021/06/20 08:04:39;;;;;;;8.80;6.60;;;18.70;93.20;;;;;;4994960;28;20046;-47
2021/06/20 08:07:05;;;;;;;9.18;6.72;;;18.70;93.50;;;;;;5014482;28;20124;-50
2021/06/20 08:09:30;;;;;;;8.82;6.35;;;18.70;93.60;;;;;;4995181;28;20410;-48
2021/06/20 08:11:56;;;;;;;8.25;6.32;;;18.70;93.30;;;;;;5015902;28;20033;-51
2021/06/20 08:14:22;;;;;;;8.88;7.03;;;18.70;93.30;;;;;;5012422;28;20038;-50
2021/06/20 08:16:48;;;;;;;9.80;6.90;;;18.70;93.40;;;;;;4995309;28;20041;-51
2021/06/20 08:19:14;;;;;;;9.25;7.22;;;18.70;93.40;;;;;;5012130;28;20128;-52
2021/06/20 08:21:42;;;;;;;8.88;6.80;;;18.80;93.40;;;;;;5012642;28;20052;-50
2021/06/20 08:24:09;;;;;;;8.30;6.13;;;18.80;93.20;;;;;;5016115;28;20068;-50
2021/06/20 08:26:35;;;;;;;11.77;7.32;;;18.90;93.30;;;;;;5022278;28;20491;-47
2021/06/20 08:29:06;;;;;;;8.57;6.60;;;18.90;93.20;;;;;;4994302;28;20134;-52
2021/06/20 08:31:33;;;;;;;9.63;6.43;;;18.90;93.20;;;;;;5013774;28;20046;-50
2021/06/20 08:33:59;;;;;;;9.07;6.20;;;19.00;93.00;;;;;;5012590;28;20502;-51
2021/06/20 08:36:25;;;;;;;8.30;6.28;;;19.00;93.10;;;;;;5004332;28;20043;-49
2021/06/20 08:38:51;;;;;;;8.02;6.40;;;19.10;93.10;;;;;;4989127;28;20053;-52
2021/06/20 08:41:17;;;;;;;10.55;6.03;;;19.20;92.80;;;;;;5012523;28;20050;-49
2021/06/20 08:43:44;;;;;;;9.63;6.93;;;19.30;93.00;;;;;;5000804;28;20402;-48
2021/06/20 08:46:12;;;;;;;7.72;5.88;;;19.40;93.00;;;;;;5004855;28;20042;-51
2021/06/20 08:48:39;;;;;;;8.00;6.20;;;19.40;92.80;;;;;;4985638;28;20049;-52
2021/06/20 08:51:05;;;;;;;6.45;5.20;;;19.40;92.50;;;;;;5012374;28;20113;-52
2021/06/20 08:53:35;;;;;;;7.53;5.13;;;19.40;92.30;;;;;;4994990;28;20064;-52
2021/06/20 08:56:00;;;;;;;6.65;4.88;;;19.40;92.30;;;;;;5011184;28;20074;-53
2021/06/20 08:58:31;;;;;;;6.50;4.50;;;19.40;91.90;;;;;;5012936;28;20426;-54
2021/06/20 09:00:59;;;;;;;6.10;4.27;;;19.40;92.00;;;;;;4994049;28;20108;-53
2021/06/20 09:03:40;;;;;;;5.18;3.80;;;19.40;92.20;;;;;;5027001;28;20293;-52
2021/06/20 09:06:15;;;;;;;4.25;3.47;;;19.40;91.50;;;;;;5010728;28;20092;-51
2021/06/20 09:09:05;;;;;;;5.47;3.80;;;19.30;91.40;;;;;;5008342;28;20125;-53
2021/06/20 09:11:34;;;;;;;3.85;3.25;;;19.30;91.70;;;;;;5020758;28;20042;-50
2021/06/20 09:14:02;;;;;;;7.25;3.22;;;19.30;91.90;;;;;;5021156;28;20458;-49
2021/06/20 09:16:28;;;;;;;4.05;3.45;;;19.20;91.40;;;;;;5011074;28;20516;-52
2021/06/20 09:18:54;;;;;;;7.88;4.00;;;19.20;91.60;;;;;;5011269;28;20034;-51
2021/06/20 09:21:26;;;;;;;5.57;3.70;;;19.10;91.60;;;;;;5020823;28;20045;-51
2021/06/20 09:23:55;;;;;;;4.25;3.58;;;19.10;91.60;;;;;;5017376;28;20066;-49
2021/06/20 09:26:37;;;;;;;4.68;3.85;;;19.20;91.90;;;;;;5022406;28;20046;-50
2021/06/20 09:29:05;;;;;;;4.10;3.50;;;19.30;92.10;;;;;;4994160;28;20041;-49
2021/06/20 09:31:44;;;;;;;3.75;2.60;;;19.40;91.90;;;;;;5011417;28;20041;-50
2021/06/20 09:34:09;;;;;;;4.20;2.65;;;19.50;91.20;;;;;;5011234;28;20053;-48
2021/06/20 09:36:35;;;;;;;3.35;2.65;;;19.60;91.30;;;;;;5009916;28;20049;-49
2021/06/20 09:39:03;;;;;;;4.30;2.70;;;19.70;91.20;;;;;;5011371;28;20045;-52
2021/06/20 09:41:29;;;;;;;3.40;2.70;;;19.80;90.80;;;;;;5012055;28;20457;-52
2021/06/20 09:43:56;;;;;;;4.13;2.92;;;19.80;90.70;;;;;;5011392;28;20037;-53
2021/06/20 09:46:24;;;;;;;2.85;2.20;;;19.80;90.40;;;;;;5011929;28;20030;-50
2021/06/20 09:48:51;;;;;;;3.85;2.40;;;19.90;90.00;;;;;;5011434;28;20038;-53
2021/06/20 09:51:22;;;;;;;4.00;2.60;;;19.90;89.60;;;;;;5009589;28;20096;-52
2021/06/20 09:53:49;;;;;;;2.80;2.35;;;19.80;89.80;;;;;;5010993;28;20228;-48
2021/06/20 09:56:28;;;;;;;2.15;1.95;;;19.80;90.00;;;;;;5010473;28;20565;-48
2021/06/20 09:59:03;;;;;;;2.15;1.90;;;19.90;90.30;;;;;;5010733;28;20070;-48
2021/06/20 10:01:31;;;;;;;3.42;1.88;;;19.90;90.30;;;;;;5011159;28;20053;-49
2021/06/20 10:03:58;;;;;;;3.63;1.60;;;20.00;90.00;;;;;;5013282;28;20092;-50
2021/06/20 10:06:23;;;;;;;3.53;2.10;;;19.90;89.50;;;;;;5013045;28;20043;-53
2021/06/20 10:08:49;;;;;;;2.00;1.67;;;19.90;89.10;;;;;;5014519;28;20041;-52
2021/06/20 10:11:17;;;;;;;2.95;1.90;;;19.90;89.30;;;;;;5014659;28;20038;-51
2021/06/20 10:13:42;;;;;;;4.38;1.70;;;19.80;88.60;;;;;;5015045;28;20038;-51
2021/06/20 10:16:16;;;;;;;1.90;1.60;;;19.70;89.10;;;;;;5013368;28;20056;-52
2021/06/20 10:18:48;;;;;;;1.73;1.50;;;19.70;88.60;;;;;;4997582;28;20049;-51
2021/06/20 10:21:14;;;;;;;2.72;1.70;;;19.60;88.80;;;;;;5014202;28;20132;-52
2021/06/20 10:23:40;;;;;;;2.00;1.58;;;19.50;89.00;;;;;;5015054;28;20129;-52
2021/06/20 10:26:08;;;;;;;3.38;1.63;;;19.50;88.70;;;;;;4995813;28;20049;-54
2021/06/20 10:28:34;;;;;;;2.67;1.60;;;19.60;88.60;;;;;;5025822;28;20541;-52
2021/06/20 10:31:10;;;;;;;1.70;1.55;;;19.50;88.40;;;;;;4999814;28;20042;-52
2021/06/20 10:33:37;;;;;;;1.98;1.40;;;19.40;88.70;;;;;;5013794;28;20550;-50
2021/06/20 10:36:10;;;;;;;2.78;1.60;;;19.30;89.20;;;;;;5014199;28;20242;-52
2021/06/20 10:38:41;;;;;;;3.83;1.98;;;19.30;89.80;;;;;;5016121;28;20438;-53
2021/06/20 10:41:19;;;;;;;5.60;1.98;;;19.30;90.20;;;;;;5014187;28;20054;-51
2021/06/20 10:43:55;;;;;;;2.13;1.90;;;19.30;90.50;;;;;;4987373;28;20042;-54
2021/06/20 10:46:24;;;;;;;2.90;1.80;;;19.40;90.40;;;;;;5014201;28;20051;-52
2021/06/20 10:48:49;;;;;;;2.92;1.80;;;19.40;90.40;;;;;;5000837;28;20356;-53
2021/06/20 10:51:18;;;;;;;2.72;1.50;;;19.40;90.50;;;;;;5013645;28;20074;-52
2021/06/20 10:53:46;;;;;;;2.60;1.67;;;19.50;90.60;;;;;;4995844;28;20116;-53
2021/06/20 10:56:28;;;;;;;2.15;1.35;;;19.60;90.10;;;;;;4995973;28;20113;-51
2021/06/20 10:58:55;;;;;;;1.60;1.20;;;19.60;90.10;;;;;;5012699;28;20213;-50
2021/06/20 11:01:24;;;;;;;2.22;1.83;;;19.70;90.10;;;;;;5013766;28;20123;-51
2021/06/20 11:03:53;;;;;;;2.45;1.80;;;19.80;89.30;;;;;;4995526;28;20033;-49
2021/06/20 11:06:21;;;;;;;4.10;1.90;;;19.70;88.10;;;;;;5012703;28;20499;-50
2021/06/20 11:08:53;;;;;;;2.63;1.50;;;19.70;88.10;;;;;;5013416;28;20049;-53
2021/06/20 11:11:27;;;;;;;;;;;19.70;88.40;;;;;;5014411;28;20046;-50
2021/06/20 11:13:56;;;;;;;3.53;1.75;;;19.70;88.80;;;;;;5013394;28;19929;-49
2021/06/20 11:16:36;;;;;;;2.45;1.70;;;19.60;88.40;;;;;;5012473;28;20046;-48
2021/06/20 11:19:25;;;;;;;1.80;1.45;;;19.60;88.70;;;;;;5012786;28;20386;-51
2021/06/20 11:21:58;;;;;;;3.17;1.40;;;19.60;88.40;;;;;;5013819;28;20053;-47
2021/06/20 11:24:29;;;;;;;2.60;1.40;;;19.60;88.10;;;;;;5012165;28;20052;-49
2021/06/20 11:26:56;;;;;;;1.80;1.50;;;19.70;89.20;;;;;;5013058;28;20044;-51
2021/06/20 11:29:22;;;;;;;2.30;1.55;;;19.80;89.10;;;;;;5012545;28;20038;-50
2021/06/20 11:31:53;;;;;;;3.60;1.70;;;20.00;89.50;;;;;;5013526;28;20124;-51
2021/06/20 11:34:20;;;;;;;2.38;1.95;;;20.30;88.90;;;;;;5012683;28;20104;-49
2021/06/20 11:36:46;;;;;;;7.50;1.98;;;20.60;87.60;;;;;;5011924;28;20050;-52
2021/06/20 11:39:15;;;;;;;3.20;2.28;;;20.70;86.90;;;;;;5012881;28;20111;-50
2021/06/20 11:41:49;;;;;;;2.75;1.88;;;20.80;86.20;;;;;;5012828;28;20046;-52
2021/06/20 11:44:16;;;;;;;3.10;2.05;;;20.90;85.80;;;;;;5011936;28;20052;-52
2021/06/20 11:46:45;;;;;;;2.50;1.90;;;21.00;86.10;;;;;;5017082;28;20099;-53
2021/06/20 11:49:14;;;;;;;1.95;1.60;;;21.10;87.10;;;;;;5016761;28;20121;-52
2021/06/20 11:51:44;;;;;;;2.33;1.83;;;21.40;87.10;;;;;;5013042;28;20060;-51
2021/06/20 11:54:15;;;;;;;2.10;1.55;;;21.50;86.30;;;;;;5016669;28;20038;-52
2021/06/20 11:56:46;;;;;;;2.60;1.45;;;21.70;86.20;;;;;;5011184;28;20498;-51
2021/06/20 11:59:12;;;;;;;3.22;1.60;;;21.90;85.20;;;;;;5008965;28;20052;-50
2021/06/20 12:01:47;;;;;;;2.45;1.50;;;21.80;83.70;;;;;;4994743;28;20038;-51
2021/06/20 12:04:21;;;;;;;2.30;1.58;;;21.90;83.10;;;;;;5003399;28;20042;-52
2021/06/20 12:06:49;;;;;;;1.42;1.33;;;21.80;82.60;;;;;;5011715;28;20129;-50
2021/06/20 12:09:16;;;;;;;2.90;1.55;;;21.80;82.10;;;;;;4991926;28;20085;-48
2021/06/20 12:11:43;;;;;;;3.20;1.40;;;21.60;83.10;;;;;;5005629;28;20052;-52
2021/06/20 12:14:21;;;;;;;1.90;1.52;;;21.40;83.20;;;;;;5011910;28;20105;-51
2021/06/20 12:16:50;;;;;;;2.60;1.75;;;21.30;82.80;;;;;;5012815;28;20073;-50
2021/06/20 12:19:17;;;;;;;3.45;1.67;;;21.10;83.30;;;;;;5011796;28;20104;-52
2021/06/20 12:21:43;;;;;;;1.83;1.67;;;21.00;83.50;;;;;;5012050;28;20033;-50
2021/06/20 12:24:12;;;;;;;2.78;1.70;;;21.00;83.60;;;;;;5012012;28;20049;-50
2021/06/20 12:26:38;;;;;;;1.60;1.50;;;20.90;83.80;;;;;;5011674;28;20050;-51
2021/06/20 12:29:05;;;;;;;2.67;1.65;;;20.80;84.10;;;;;;5011826;28;20038;-53
2021/06/20 12:31:31;;;;;;;2.83;1.73;;;20.80;85.00;;;;;;5010631;28;20125;-53
2021/06/20 12:34:06;;;;;;;2.70;1.90;;;20.80;85.80;;;;;;5010695;28;20125;-50
2021/06/20 12:36:33;;;;;;;2.25;1.70;;;21.00;85.50;;;;;;4998891;28;20045;-50
2021/06/20 12:39:01;;;;;;;3.08;1.90;;;21.20;85.20;;;;;;4994223;28;20049;-52
2021/06/20 12:41:29;;;;;;;3.28;1.67;;;21.30;84.70;;;;;;5010686;28;20052;-51